Time;durP1;ratioP1;P1;durP2;ratioP2;P2;SDS_P1;SDS_P2;PMS_P1;PMS_P2;Temp;Humidity;BMP_temperature;BMP_pressure;BME280_temperature;BME280_humidity;BME280_pressure;Samples;Min_cycle;Max_cycle;Signal;HPM_P1;HPM_P2
2023/10/11 00:01:18;;;;;;;17.73;11.43;;;;;;;11.45;nan;101375.88;4882723;29;20100;-76
2023/10/11 00:03:52;;;;;;;24.33;12.45;;;;;;;11.32;nan;101360.06;4894306;29;20107;-75
2023/10/11 00:06:17;;;;;;;20.38;12.05;;;;;;;11.36;nan;101373.66;4912196;29;20016;-75
2023/10/11 00:08:43;;;;;;;19.67;12.32;;;;;;;11.31;nan;101371.66;4908593;29;20033;-75
2023/10/11 00:11:09;;;;;;;22.42;12.82;;;;;;;11.19;nan;101352.19;4904682;29;20028;-68
2023/10/11 00:13:36;;;;;;;16.88;11.80;;;;;;;11.25;nan;101359.28;4898982;29;20032;-70
2023/10/11 00:16:09;;;;;;;23.65;13.30;;;;;;;11.24;nan;101357.66;4883270;29;20032;-69
2023/10/11 00:18:36;;;;;;;19.90;12.57;;;;;;;11.33;nan;101366.97;4883732;29;20041;-74
2023/10/11 00:21:41;;;;;;;20.85;12.15;;;;;;;11.34;nan;101357.25;4890411;29;20472;-76
2023/10/11 00:23:53;;;;;;;22.50;12.13;;;;;;;11.20;nan;101340.63;4886488;29;20060;-75
2023/10/11 00:26:19;;;;;;;21.05;14.07;;;;;;;11.22;nan;101333.31;4889001;29;20115;-74
2023/10/11 00:28:45;;;;;;;25.20;14.27;;;;;;;11.23;nan;101338.41;4886458;29;20131;-74
2023/10/11 00:31:17;;;;;;;22.58;15.15;;;;;;;11.27;nan;101352.78;4888008;29;20617;-75
2023/10/11 00:33:42;;;;;;;28.35;15.45;;;;;;;11.24;nan;101347.91;4879372;29;20029;-75
2023/10/11 00:36:08;;;;;;;25.67;15.02;;;;;;;11.19;nan;101347.72;4887388;29;20869;-74
2023/10/11 00:38:43;;;;;;;27.42;15.38;;;;;;;11.07;nan;101347.53;4891117;29;20310;-75
2023/10/11 00:41:18;;;;;;;25.88;15.13;;;;;;;10.89;nan;101344.72;4886988;29;20032;-75
2023/10/11 00:43:47;;;;;;;21.83;14.00;;;;;;;10.96;nan;101361.34;4887834;29;20052;-74
2023/10/11 00:46:14;;;;;;;27.55;13.70;;;;;;;10.88;nan;101351.00;4887949;29;20032;-75
2023/10/11 00:48:56;;;;;;;29.05;14.52;;;;;;;10.87;nan;101357.31;4887082;29;20028;-75
2023/10/11 00:51:29;;;;;;;27.50;15.52;;;;;;;10.84;nan;101352.41;4880988;29;20119;-74
2023/10/11 00:53:56;;;;;;;23.17;14.82;;;;;;;10.79;nan;101350.38;4883182;29;20499;-75
2023/10/11 00:56:22;;;;;;;28.90;14.80;;;;;;;10.72;nan;101344.31;4887703;29;20048;-74
2023/10/11 00:58:51;;;;;;;24.23;13.93;;;;;;;10.61;nan;101335.19;4885755;29;20056;-75
2023/10/11 01:01:17;;;;;;;24.27;13.90;;;;;;;10.62;nan;101334.19;4885639;29;20029;-74
2023/10/11 01:03:44;;;;;;;23.60;13.55;;;;;;;10.53;nan;101327.47;4886875;29;20085;-74
2023/10/11 01:06:10;;;;;;;24.25;14.18;;;;;;;10.54;nan;101330.94;4881917;29;21560;-75
2023/10/11 01:08:40;;;;;;;24.17;12.77;;;;;;;10.59;nan;101352.22;4886386;29;20028;-69
2023/10/11 01:11:11;;;;;;;26.00;13.55;;;;;;;10.57;nan;101346.34;4883987;29;20056;-69
2023/10/11 01:13:40;;;;;;;19.20;12.52;;;;;;;10.46;nan;101342.47;4898228;29;20394;-75
2023/10/11 01:16:14;;;;;;;19.10;11.85;;;;;;;10.35;nan;101341.25;4886571;29;20027;-75
2023/10/11 01:18:40;;;;;;;23.70;12.50;;;;;;;10.32;nan;101352.19;4884375;29;20053;-75
2023/10/11 01:21:07;;;;;;;18.63;12.13;;;;;;;10.30;nan;101351.56;4887389;29;20032;-75
2023/10/11 01:23:34;;;;;;;21.38;12.82;;;;;;;10.30;nan;101356.03;4883159;29;20207;-75
2023/10/11 01:26:09;;;;;;;21.88;11.75;;;;;;;10.27;nan;101357.22;4887551;29;20039;-74
2023/10/11 01:28:41;;;;;;;24.20;11.35;;;;;;;10.13;nan;101348.47;4884810;29;20040;-75
2023/10/11 01:31:10;;;;;;;20.35;11.93;;;;;;;9.98;nan;101332.84;4888956;29;20036;-75
2023/10/11 01:33:43;;;;;;;;;;;;;;;10.13;nan;101366.06;4889540;29;20043;-75
2023/10/11 01:36:11;;;;;;;18.25;10.38;;;;;;;10.05;nan;101360.97;4889676;29;19915;-75
2023/10/11 01:38:48;;;;;;;15.00;10.80;;;;;;;10.01;nan;101363.19;4888596;29;20181;-75
2023/10/11 01:41:19;;;;;;;16.65;11.52;;;;;;;9.96;nan;101369.06;4887743;29;20435;-75
2023/10/11 01:43:49;;;;;;;17.00;10.63;;;;;;;9.94;nan;101365.00;4887548;29;20040;-75
2023/10/11 01:46:27;;;;;;;15.27;10.38;;;;;;;9.92;nan;101374.91;4888380;29;20070;-75
2023/10/11 01:48:58;;;;;;;17.10;10.45;;;;;;;9.79;nan;101371.22;4889924;29;20032;-74
2023/10/11 01:51:26;;;;;;;17.08;10.52;;;;;;;9.69;nan;101365.47;4903479;29;20497;-75
2023/10/11 01:53:59;;;;;;;15.97;10.93;;;;;;;9.73;nan;101379.06;4890646;29;20091;-75
2023/10/11 01:56:25;;;;;;;16.95;10.52;;;;;;;9.67;nan;101385.09;4889498;29;20036;-75
2023/10/11 01:58:52;;;;;;;17.65;10.48;;;;;;;9.53;nan;101376.34;4887240;29;20400;-75
2023/10/11 02:01:23;;;;;;;15.73;10.40;;;;;;;9.59;nan;101389.50;4886543;29;20112;-74
2023/10/11 02:03:55;;;;;;;18.17;11.13;;;;;;;9.55;nan;101396.19;4888512;29;20033;-75
2023/10/11 02:06:21;;;;;;;17.65;10.68;;;;;;;9.54;nan;101399.78;4888667;29;20039;-76
2023/10/11 02:08:47;;;;;;;18.45;10.18;;;;;;;9.49;nan;101388.25;4889159;29;20031;-75
2023/10/11 02:11:14;;;;;;;15.85;10.40;;;;;;;9.42;nan;101374.25;4887363;29;20119;-76
2023/10/11 02:13:41;;;;;;;15.73;10.10;;;;;;;9.33;nan;101370.94;4888023;29;20035;-77
2023/10/11 02:16:14;;;;;;;16.38;10.52;;;;;;;9.43;nan;101383.75;4889827;29;20072;-77
2023/10/11 02:18:39;;;;;;;18.17;11.20;;;;;;;9.42;nan;101384.75;4904755;29;20506;-75
2023/10/11 02:21:06;;;;;;;18.50;10.95;;;;;;;9.35;nan;101384.72;4886740;29;20033;-76
2023/10/11 02:23:39;;;;;;;15.80;10.07;;;;;;;9.34;nan;101389.16;4890994;29;20494;-75
2023/10/11 02:26:18;;;;;;;17.40;10.88;;;;;;;9.36;nan;101407.34;4891356;29;20035;-75
2023/10/11 02:28:45;;;;;;;16.50;10.57;;;;;;;9.33;nan;101397.22;4901485;29;20021;-75
2023/10/11 02:31:14;;;;;;;16.70;10.57;;;;;;;9.31;nan;101393.97;4909275;29;20036;-75
2023/10/11 02:33:40;;;;;;;19.30;10.47;;;;;;;9.30;nan;101397.63;4910534;29;20044;-75
2023/10/11 02:36:09;;;;;;;19.17;10.00;;;;;;;9.28;nan;101399.63;4907428;29;20021;-74
2023/10/11 02:38:50;;;;;;;19.85;10.05;;;;;;;9.16;nan;101371.22;4903489;29;20029;-75
2023/10/11 02:41:20;;;;;;;16.23;9.30;;;;;;;9.15;nan;101387.22;4889027;29;20029;-74
2023/10/11 02:43:49;;;;;;;13.50;8.88;;;;;;;9.12;nan;101401.53;4890092;29;20391;-76
2023/10/11 02:46:22;;;;;;;15.93;9.65;;;;;;;9.10;nan;101389.59;4891086;29;20073;-76
2023/10/11 02:48:49;;;;;;;15.27;9.38;;;;;;;9.09;nan;101398.47;4887632;29;20103;-75
2023/10/11 02:51:24;;;;;;;16.25;9.77;;;;;;;9.07;nan;101395.22;4886534;29;20492;-75
2023/10/11 02:53:52;;;;;;;15.63;9.15;;;;;;;9.04;nan;101388.53;4887983;29;20036;-75
2023/10/11 02:56:18;;;;;;;18.05;9.43;;;;;;;9.04;nan;101383.28;4899679;29;20580;-75
2023/10/11 02:58:44;;;;;;;14.63;9.20;;;;;;;8.78;nan;101360.22;4886127;29;20140;-77
2023/10/11 03:01:20;;;;;;;21.63;9.25;;;;;;;8.96;nan;101396.56;4887222;29;20032;-75
2023/10/11 03:03:52;;;;;;;13.50;8.75;;;;;;;8.88;nan;101399.28;4884530;29;20061;-75
2023/10/11 03:06:18;;;;;;;17.98;9.15;;;;;;;8.87;nan;101392.44;4886629;29;20032;-75
2023/10/11 03:08:44;;;;;;;15.77;9.88;;;;;;;8.87;nan;101395.06;4890203;29;20020;-74
2023/10/11 03:11:15;;;;;;;13.80;9.23;;;;;;;8.64;nan;101363.72;4886423;29;20055;-75
2023/10/11 03:13:43;;;;;;;14.63;8.73;;;;;;;8.83;nan;101401.69;4887236;29;20100;-75
2023/10/11 03:16:13;;;;;;;17.35;9.13;;;;;;;8.69;nan;101388.44;4889605;29;20035;-75
2023/10/11 03:18:39;;;;;;;15.43;9.40;;;;;;;8.70;nan;101403.19;4887838;29;20060;-75
2023/10/11 03:21:17;;;;;;;16.40;9.52;;;;;;;8.64;nan;101403.94;4888137;29;20036;-75
2023/10/11 03:23:44;;;;;;;15.13;9.18;;;;;;;8.60;nan;101394.00;4886583;29;20028;-76
2023/10/11 03:26:32;;;;;;;17.85;10.02;;;;;;;8.48;nan;101391.06;4887345;29;20033;-74
2023/10/11 03:28:59;;;;;;;19.45;10.00;;;;;;;8.35;nan;101383.81;4887876;29;20164;-75
2023/10/11 03:31:29;;;;;;;18.50;10.02;;;;;;;8.31;nan;101378.13;4887487;29;20024;-75
2023/10/11 03:33:59;;;;;;;19.80;9.88;;;;;;;8.34;nan;101395.31;4886051;29;20032;-75
2023/10/11 03:36:35;;;;;;;21.55;9.98;;;;;;;8.29;nan;101395.88;4886536;29;20076;-75
2023/10/11 03:39:09;;;;;;;18.45;9.95;;;;;;;8.25;nan;101397.22;4888772;29;20132;-75
2023/10/11 03:41:45;;;;;;;16.90;10.02;;;;;;;8.32;nan;101415.69;4888386;29;20364;-75
2023/10/11 03:44:17;;;;;;;18.95;10.10;;;;;;;8.28;nan;101415.25;4886424;29;20049;-76
2023/10/11 03:46:47;;;;;;;16.88;10.38;;;;;;;8.27;nan;101407.56;4886479;29;20035;-76
2023/10/11 03:49:58;;;;;;;20.92;10.55;;;;;;;8.21;nan;101397.78;4886772;29;20028;-76
2023/10/11 03:51:59;;;;;;;15.73;9.98;;;;;;;8.17;nan;101396.53;4885803;29;20063;-75
2023/10/11 03:54:24;;;;;;;17.95;9.77;;;;;;;8.22;nan;101404.66;4896151;29;20037;-75
2023/10/11 03:56:54;;;;;;;18.15;10.35;;;;;;;8.25;nan;101414.78;4887296;29;20157;-75
2023/10/11 03:59:26;;;;;;;17.50;9.50;;;;;;;8.24;nan;101419.22;4884106;29;20518;-75
2023/10/11 04:02:00;;;;;;;20.08;9.82;;;;;;;8.25;nan;101412.16;4888382;29;20039;-75
2023/10/11 04:04:26;;;;;;;15.73;9.93;;;;;;;8.23;nan;101412.34;4882698;29;20076;-76
2023/10/11 04:06:57;;;;;;;18.58;10.35;;;;;;;8.29;nan;101416.88;4883758;29;20506;-76
2023/10/11 04:09:33;;;;;;;16.45;9.43;;;;;;;8.02;nan;101394.75;4885004;29;20384;-75
2023/10/11 04:12:00;;;;;;;16.02;9.38;;;;;;;7.99;nan;101402.16;4886514;29;20052;-75
2023/10/11 04:14:45;;;;;;;16.20;9.25;;;;;;;7.95;nan;101401.72;4885969;29;20025;-75
2023/10/11 04:17:25;;;;;;;15.68;9.43;;;;;;;8.09;nan;101419.25;4886988;29;20031;-76
2023/10/11 04:20:17;;;;;;;14.77;9.00;;;;;;;8.10;nan;101414.81;4888583;29;20072;-75
2023/10/11 04:22:52;;;;;;;16.95;9.90;;;;;;;8.17;nan;101414.91;4898398;29;20033;-76
2023/10/11 04:25:22;;;;;;;17.63;9.98;;;;;;;8.18;nan;101413.91;4886117;29;20476;-68
2023/10/11 04:27:54;;;;;;;17.27;8.85;;;;;;;8.07;nan;101402.88;4885061;29;20064;-68
2023/10/11 04:30:41;;;;;;;17.70;8.90;;;;;;;8.20;nan;101417.97;4887517;29;20028;-68
2023/10/11 04:33:10;;;;;;;13.90;9.55;;;;;;;8.17;nan;101422.78;4886530;29;20056;-69
2023/10/11 04:35:42;;;;;;;20.38;9.30;;;;;;;7.84;nan;101373.34;4888207;29;20581;-73
2023/10/11 04:38:10;;;;;;;15.07;8.70;;;;;;;8.04;nan;101410.28;4883984;29;20111;-74
2023/10/11 04:40:49;;;;;;;18.00;9.18;;;;;;;7.94;nan;101397.47;4886693;29;20032;-74
2023/10/11 04:43:20;;;;;;;17.98;8.77;;;;;;;8.02;nan;101413.13;4885965;29;20164;-76
2023/10/11 04:45:50;;;;;;;19.02;8.82;;;;;;;8.04;nan;101415.53;4887134;29;20137;-74
2023/10/11 04:48:29;;;;;;;18.08;8.20;;;;;;;8.06;nan;101424.84;4888376;29;20040;-73
2023/10/11 04:50:56;;;;;;;20.63;9.63;;;;;;;8.10;nan;101433.19;4896053;29;20028;-75
2023/10/11 04:53:27;;;;;;;27.92;10.23;;;;;;;8.13;nan;101437.25;4900421;29;20048;-74
2023/10/11 04:55:59;;;;;;;22.02;9.75;;;;;;;8.06;nan;101426.66;4902191;29;20037;-75
2023/10/11 05:01:08;;;;;;;14.25;8.80;;;;;;;8.05;nan;101430.31;4891794;29;20024;-74
2023/10/11 05:03:37;;;;;;;17.55;8.35;;;;;;;8.04;nan;101436.53;4887499;29;20036;-74
2023/10/11 05:06:12;;;;;;;17.37;8.93;;;;;;;7.99;nan;101437.06;4902500;29;20468;-73
2023/10/11 05:08:51;;;;;;;18.20;9.50;;;;;;;7.94;nan;101442.06;4890459;29;20517;-72
2023/10/11 05:12:07;;;;;;;23.33;8.70;;;;;;;7.98;nan;101459.06;4889860;29;20040;-71
2023/10/11 05:16:50;;;;;;;19.65;9.25;;;;;;;7.94;nan;101460.41;4889269;29;20059;-73
2023/10/11 05:19:20;;;;;;;21.50;9.27;;;;;;;7.88;nan;101435.72;4888212;29;20395;-75
2023/10/11 05:21:52;;;;;;;15.38;7.82;;;;;;;7.84;nan;101449.38;4889018;29;20040;-74
2023/10/11 05:32:48;;;;;;;15.52;8.60;;;;;;;7.95;nan;101471.72;4909024;29;20051;-75
2023/10/11 05:51:26;;;;;;;17.60;9.65;;;;;;;8.40;nan;101480.41;4906039;29;20087;-72
2023/10/11 05:53:52;;;;;;;;;;;;;;;8.47;nan;101482.09;4906314;29;20036;-73
2023/10/11 05:56:20;;;;;;;19.58;9.93;;;;;;;8.48;nan;101477.69;4907619;29;20412;-72
2023/10/11 05:58:55;;;;;;;21.23;11.27;;;;;;;8.55;nan;101483.81;4906695;29;20052;-73
2023/10/11 06:01:22;;;;;;;18.33;10.80;;;;;;;8.66;nan;101493.03;4904439;29;20522;-72
2023/10/11 06:03:51;;;;;;;17.88;9.48;;;;;;;8.54;nan;101458.56;4897088;29;20048;-78
2023/10/11 06:06:31;;;;;;;18.85;9.32;;;;;;;8.75;nan;101484.03;4896581;29;20037;-79
2023/10/11 06:08:58;;;;;;;24.50;9.80;;;;;;;8.78;nan;101480.22;4895794;29;20021;-78
2023/10/11 06:11:29;;;;;;;16.80;9.45;;;;;;;8.88;nan;101491.22;4888584;29;20029;-79
2023/10/11 06:14:04;;;;;;;17.38;8.98;;;;;;;8.92;nan;101500.38;4894841;29;20025;-79
2023/10/11 06:16:37;;;;;;;13.95;8.88;;;;;;;8.91;nan;101490.88;4889884;29;21047;-79
2023/10/11 06:19:16;;;;;;;14.25;9.07;;;;;;;;;;4886217;29;20399;-78
2023/10/11 06:21:56;;;;;;;18.70;9.15;;;;;;;;;;4891608;29;20055;-78
2023/10/11 06:24:24;;;;;;;17.88;9.77;;;;;;;;;;4891114;29;20024;-77
2023/10/11 06:29:22;;;;;;;17.35;9.80;;;;;;;9.42;nan;101521.47;4890055;29;20357;-78
2023/10/11 06:31:48;;;;;;;19.17;9.75;;;;;;;;;;4889958;29;20160;-76
2023/10/11 06:34:19;;;;;;;21.02;10.50;;;;;;;;;;4890872;29;20044;-77
2023/10/11 06:36:50;;;;;;;16.17;9.85;;;;;;;;;;4890225;29;20032;-78
2023/10/11 06:42:13;;;;;;;22.27;10.48;;;;;;;;;;4891597;29;20111;-76
2023/10/11 06:44:39;;;;;;;17.92;9.10;;;;;;;;;;4890891;29;20033;-76
2023/10/11 06:47:10;;;;;;;16.10;9.27;;;;;;;;;;4882709;29;20043;-76
2023/10/11 06:49:47;;;;;;;18.10;8.88;;;;;;;;;;4891688;29;20040;-76
2023/10/11 06:52:19;;;;;;;13.63;8.07;;;;;;;;;;4892494;29;20048;-75
2023/10/11 06:54:48;;;;;;;19.42;8.60;;;;;;;;;;4890243;29;20088;-78
2023/10/11 06:57:17;;;;;;;16.75;8.93;;;;;;;;;;4889960;29;20391;-77
2023/10/11 06:59:43;;;;;;;14.27;8.77;;;;;;;;;;4888869;29;20099;-77
2023/10/11 07:02:17;;;;;;;12.52;8.23;;;;;;;;;;4903715;29;20033;-78
2023/10/11 07:04:50;;;;;;;11.00;7.45;;;;;;;10.83;nan;101540.53;4891898;29;20037;-77
2023/10/11 07:07:19;;;;;;;12.82;7.55;;;;;;;10.95;nan;101538.13;4891188;29;20028;-79
2023/10/11 07:09:56;;;;;;;13.13;7.18;;;;;;;11.09;nan;101546.88;4888004;29;20112;-78
2023/10/11 07:12:40;;;;;;;13.57;7.68;;;;;;;11.12;nan;101539.38;4892446;29;20471;-78
2023/10/11 07:15:09;;;;;;;16.58;7.43;;;;;;;11.21;nan;101538.16;4902520;29;20160;-77
2023/10/11 07:17:35;;;;;;;;;;;;;;;11.35;nan;101552.19;4888589;29;20029;-77
2023/10/11 07:20:00;;;;;;;9.48;6.40;;;;;;;11.36;nan;101545.88;4890718;29;19926;-77
2023/10/11 07:22:26;;;;;;;11.50;6.75;;;;;;;;;;4887386;29;20025;-72
2023/10/11 07:24:59;;;;;;;13.10;6.30;;;;;;;;;;4883991;29;20035;-70
2023/10/11 07:27:37;;;;;;;10.93;6.05;;;;;;;;;;4885659;29;20120;-71
2023/10/11 07:30:06;;;;;;;11.25;6.00;;;;;;;;;;4887174;29;20471;-72
2023/10/11 07:32:33;;;;;;;8.93;5.68;;;;;;;;;;4886557;29;20173;-71
2023/10/11 07:35:04;;;;;;;8.80;5.85;;;;;;;;;;4898818;29;20119;-69
2023/10/11 07:37:30;;;;;;;8.85;5.97;;;;;;;;;;4901502;29;20153;-71
2023/10/11 07:40:00;;;;;;;8.40;5.32;;;;;;;;;;4889426;29;20071;-71
2023/10/11 07:42:28;;;;;;;9.60;5.32;;;;;;;;;;4899391;29;20061;-70
2023/10/11 07:44:53;;;;;;;12.35;5.82;;;;;;;;;;4886678;29;20913;-72
2023/10/11 07:47:25;;;;;;;7.57;5.13;;;;;;;;;;4887581;29;20084;-71
2023/10/11 07:49:54;;;;;;;11.85;6.03;;;;;;;;;;4887253;29;20029;-72
2023/10/11 07:52:20;;;;;;;8.77;4.93;;;;;;;;;;4884210;29;20043;-73
2023/10/11 07:54:45;;;;;;;8.05;4.55;;;;;;;;;;4887621;29;20040;-71
2023/10/11 07:57:13;;;;;;;7.97;4.93;;;;;;;;;;4883562;29;20025;-73
2023/10/11 07:59:39;;;;;;;6.70;4.95;;;;;;;;;;4884595;29;20095;-72
2023/10/11 08:02:08;;;;;;;10.05;4.53;;;;;;;;;;4887205;29;20511;-72
2023/10/11 08:04:36;;;;;;;6.05;4.35;;;;;;;;;;4886213;29;20496;-72
2023/10/11 08:07:12;;;;;;;8.13;4.57;;;;;;;13.03;nan;101534.94;4885010;29;20120;-71
2023/10/11 08:09:46;;;;;;;10.43;4.65;;;;;;;;;;4885885;29;20033;-72
2023/10/11 08:12:16;;;;;;;6.35;4.63;;;;;;;;;;4887445;29;20032;-72
2023/10/11 08:14:47;;;;;;;8.07;5.00;;;;;;;;;;4887249;29;20037;-70
2023/10/11 08:17:16;;;;;;;8.45;4.43;;;;;;;;;;4887736;29;20123;-73
2023/10/11 08:19:44;;;;;;;8.07;4.78;;;;;;;;;;4886685;29;20058;-73
2023/10/11 08:22:10;;;;;;;9.63;4.38;;;;;;;;;;4886485;29;20068;-71
2023/10/11 08:24:58;;;;;;;7.82;4.18;;;;;;;;;;4884339;29;20704;-73
2023/10/11 08:27:28;;;;;;;5.88;3.80;;;;;;;13.69;nan;101555.59;4887046;29;20139;-71
2023/10/11 08:32:54;;;;;;;6.28;3.63;;;;;;;;;;4885545;29;20040;-74
2023/10/11 08:35:31;;;;;;;8.52;3.47;;;;;;;;;;4886804;29;20395;-69
2023/10/11 08:38:02;;;;;;;5.93;4.10;;;;;;;;;;4884510;29;20035;-73
2023/10/11 08:40:34;;;;;;;9.57;4.00;;;;;;;;;;4882058;29;20032;-78
2023/10/11 08:43:01;;;;;;;7.38;3.67;;;;;;;;;;4905879;29;20709;-79
2023/10/11 08:45:28;;;;;;;4.35;3.22;;;;;;;;;;4895736;29;20032;-77
2023/10/11 08:47:54;;;;;;;7.47;3.63;;;;;;;;;;4893656;29;20036;-77
2023/10/11 08:50:20;;;;;;;10.25;3.58;;;;;;;;;;4898719;29;20025;-77
2023/10/11 08:52:46;;;;;;;5.88;3.55;;;;;;;;;;4896379;29;20032;-78
2023/10/11 08:55:19;;;;;;;5.63;3.57;;;;;;;;;;4898147;29;20516;-77
2023/10/11 08:57:47;;;;;;;9.75;3.33;;;;;;;;;;4897886;29;20327;-76
2023/10/11 09:00:25;;;;;;;4.47;2.92;;;;;;;;;;4907689;29;20085;-78
2023/10/11 09:02:52;;;;;;;6.88;2.95;;;;;;;;;;4895603;29;20125;-77
2023/10/11 09:05:32;;;;;;;6.13;3.08;;;;;;;;;;4895542;29;20025;-77
2023/10/11 09:07:57;;;;;;;5.47;2.50;;;;;;;;;;4889435;29;20025;-76
2023/10/11 09:10:25;;;;;;;4.82;2.95;;;;;;;;;;4887794;29;20076;-77
2023/10/11 09:12:56;;;;;;;7.53;2.75;;;;;;;;;;4886387;29;20028;-77
2023/10/11 09:15:21;;;;;;;5.22;2.60;;;;;;;;;;4887496;29;20135;-77
2023/10/11 09:17:50;;;;;;;4.40;2.65;;;;;;;;;;4886655;29;20115;-76
2023/10/11 09:20:23;;;;;;;8.70;3.22;;;;;;;;;;4887427;29;20029;-75
2023/10/11 09:22:52;;;;;;;7.60;3.20;;;;;;;;;;4887562;29;20037;-79
2023/10/11 09:25:33;;;;;;;6.93;2.97;;;;;;;;;;4887641;29;20037;-78
2023/10/11 09:27:58;;;;;;;10.02;3.35;;;;;;;;;;4886253;29;20032;-78
2023/10/11 09:30:27;;;;;;;8.82;3.72;;;;;;;16.53;nan;101532.31;4902629;29;20029;-76
2023/10/11 09:32:59;;;;;;;4.55;3.42;;;;;;;;;;4882677;29;20025;-78
2023/10/11 09:35:26;;;;;;;4.63;3.17;;;;;;;;;;4885528;29;20032;-77
2023/10/11 09:37:55;;;;;;;5.32;3.13;;;;;;;;;;4888934;29;20085;-77
2023/10/11 09:40:32;;;;;;;8.77;3.35;;;;;;;;;;4888295;29;20162;-76
2023/10/11 09:43:01;;;;;;;8.52;3.08;;;;;;;;;;4885558;29;20043;-76
2023/10/11 09:45:41;;;;;;;8.88;3.00;;;;;;;;;;4887471;29;21014;-76
2023/10/11 09:48:08;;;;;;;4.28;2.90;;;;;;;;;;4883708;29;20167;-76
2023/10/11 09:50:34;;;;;;;6.55;2.80;;;;;;;;;;4888618;29;20021;-77
2023/10/11 09:53:00;;;;;;;8.85;2.67;;;;;;;;;;4898859;29;20035;-77
2023/10/11 09:55:31;;;;;;;6.15;2.70;;;;;;;;;;4895380;29;20382;-77
2023/10/11 09:58:17;;;;;;;4.82;2.60;;;;;;;;;;4894552;29;20024;-77
2023/10/11 10:01:06;;;;;;;6.53;2.75;;;;;;;;;;4892984;29;20044;-76
2023/10/11 10:03:31;;;;;;;5.35;2.63;;;;;;;;;;4896803;29;20432;-77
2023/10/11 10:06:18;;;;;;;8.87;2.53;;;;;;;;;;4902540;29;20035;-77
2023/10/11 10:09:27;;;;;;;4.57;2.75;;;;;;;17.96;nan;101453.94;4899294;29;20272;-78
2023/10/11 10:12:09;;;;;;;5.95;2.33;;;;;;;;;;4893942;29;20052;-77
2023/10/11 10:14:41;;;;;;;6.25;2.08;;;;;;;;;;4895611;29;20033;-76
2023/10/11 10:17:15;;;;;;;4.95;2.03;;;;;;;;;;4894726;29;20024;-77
2023/10/11 10:19:43;;;;;;;4.93;1.90;;;;;;;;;;4893776;29;20033;-77
2023/10/11 10:22:15;;;;;;;7.65;1.75;;;;;;;;;;4895424;29;20044;-77
2023/10/11 10:24:41;;;;;;;6.20;1.98;;;;;;;;;;4894610;29;20024;-77
2023/10/11 10:27:26;;;;;;;4.05;1.73;;;;;;;;;;4887922;29;20028;-73
2023/10/11 10:29:58;;;;;;;3.40;2.10;;;;;;;;;;4887515;29;20037;-74
2023/10/11 10:32:23;;;;;;;3.38;1.88;;;;;;;;;;4902283;29;20056;-73
2023/10/11 10:34:48;;;;;;;5.30;1.87;;;;;;;;;;4889237;29;20059;-72
2023/10/11 10:37:40;;;;;;;3.42;1.52;;;;;;;;;;4890069;29;20366;-72
2023/10/11 10:40:24;;;;;;;8.32;2.20;;;;;;;19.06;nan;101427.03;4900358;29;20032;-71
2023/10/11 10:43:31;;;;;;;4.97;1.80;;;;;;;19.13;nan;101438.28;4886111;29;20065;-74
2023/10/11 10:46:03;;;;;;;3.50;1.90;;;;;;;19.18;nan;101404.66;4885609;29;20047;-74
2023/10/11 10:48:39;;;;;;;6.78;2.15;;;;;;;19.24;nan;101427.66;4886467;29;20052;-72
2023/10/11 10:51:04;;;;;;;5.03;1.90;;;;;;;;;;4889626;29;20056;-74
2023/10/11 10:53:50;;;;;;;4.00;1.42;;;;;;;;;;4889311;29;20085;-74
2023/10/11 10:56:19;;;;;;;3.05;1.90;;;;;;;19.43;nan;101406.66;4885226;29;20032;-72
2023/10/11 10:58:45;;;;;;;;;;;;;;;19.51;nan;101414.19;4885450;29;20059;-72
2023/10/11 11:01:10;;;;;;;3.70;1.60;;;;;;;19.58;nan;101416.63;4887465;29;19951;-74
2023/10/11 11:03:35;;;;;;;6.60;1.83;;;;;;;19.63;nan;101395.25;4885654;29;20312;-73
2023/10/11 11:06:02;;;;;;;5.93;2.08;;;;;;;19.69;nan;101360.31;4887056;29;20039;-72
2023/10/11 11:08:31;;;;;;;2.75;1.20;;;;;;;19.73;nan;101398.81;4900816;29;20037;-71
2023/10/11 11:11:19;;;;;;;3.00;1.30;;;;;;;;;;4884409;29;20498;-72
2023/10/11 11:13:47;;;;;;;2.70;1.63;;;;;;;19.92;nan;101388.47;4886118;29;20045;-72
2023/10/11 11:16:22;;;;;;;3.90;1.70;;;;;;;20.01;nan;101441.41;4896152;29;20025;-73
2023/10/11 11:18:48;;;;;;;4.93;1.60;;;;;;;20.09;nan;101444.41;4887233;29;20032;-73
2023/10/11 11:21:25;;;;;;;5.53;1.70;;;;;;;20.15;nan;101451.34;4885885;29;20232;-72
2023/10/11 11:23:52;;;;;;;4.57;1.73;;;;;;;20.15;nan;101450.56;4899564;29;20028;-74
2023/10/11 11:26:21;;;;;;;3.72;1.67;;;;;;;20.17;nan;101451.88;4881907;29;20027;-71
2023/10/11 11:28:48;;;;;;;3.15;1.60;;;;;;;20.11;nan;101431.56;4886162;29;20686;-72
2023/10/11 11:31:13;;;;;;;2.53;1.52;;;;;;;20.23;nan;101441.19;4888172;29;20089;-73
2023/10/11 11:34:05;;;;;;;3.33;1.48;;;;;;;20.25;nan;101433.72;4885384;29;20060;-73
2023/10/11 11:36:31;;;;;;;2.15;1.30;;;;;;;20.32;nan;101435.06;4883114;29;20535;-73
2023/10/11 11:39:17;;;;;;;4.00;1.48;;;;;;;20.42;nan;101436.16;4887756;29;20114;-74
2023/10/11 11:41:57;;;;;;;6.43;1.80;;;;;;;20.48;nan;101421.72;4885420;29;20033;-77
2023/10/11 11:44:27;;;;;;;6.53;1.90;;;;;;;20.60;nan;101424.97;4887366;29;20176;-78
2023/10/11 11:46:54;;;;;;;3.22;1.60;;;;;;;20.72;nan;101430.88;4889488;29;20029;-79
2023/10/11 11:49:22;;;;;;;3.63;1.45;;;;;;;20.73;nan;101423.63;4886893;29;20020;-77
2023/10/11 11:51:52;;;;;;;3.95;1.50;;;;;;;20.77;nan;101424.72;4887268;29;20523;-77
2023/10/11 11:54:19;;;;;;;3.35;1.50;;;;;;;20.75;nan;101426.84;4888222;29;20124;-77
2023/10/11 11:56:45;;;;;;;3.78;1.48;;;;;;;20.82;nan;101430.06;4886723;29;20132;-76
2023/10/11 11:59:19;;;;;;;1.98;1.40;;;;;;;20.72;nan;101403.31;4883801;29;20037;-76
2023/10/11 12:01:49;;;;;;;4.13;1.70;;;;;;;20.94;nan;101430.59;4893006;29;20439;-76
2023/10/11 12:04:20;;;;;;;3.22;1.60;;;;;;;20.97;nan;101424.72;4886101;29;20495;-75
2023/10/11 12:06:49;;;;;;;2.72;1.77;;;;;;;20.95;nan;101408.13;4886902;29;20036;-74
2023/10/11 12:09:21;;;;;;;1.52;1.10;;;;;;;21.07;nan;101418.53;4886723;29;20028;-75
2023/10/11 12:11:50;;;;;;;4.57;1.50;;;;;;;21.04;nan;101419.84;4901409;29;20040;-76
2023/10/11 12:14:16;;;;;;;;;;;;;;;21.18;nan;101425.47;4885605;29;20033;-77
2023/10/11 12:16:42;;;;;;;8.68;2.15;;;;;;;;;;4887528;29;19919;-77
2023/10/11 12:19:13;;;;;;;2.05;1.25;;;;;;;21.24;nan;101427.06;4888736;29;20054;-75
2023/10/11 12:21:39;;;;;;;2.88;1.45;;;;;;;21.22;nan;101370.28;4892875;29;20029;-77
2023/10/11 12:24:11;;;;;;;2.17;1.40;;;;;;;21.24;nan;101303.06;4887930;29;20399;-77
2023/10/11 12:26:41;;;;;;;2.92;1.40;;;;;;;21.23;nan;101320.19;4901075;29;20033;-78
2023/10/11 12:29:14;;;;;;;2.95;1.30;;;;;;;21.38;nan;101363.00;4888714;29;20056;-77
2023/10/11 12:31:40;;;;;;;3.60;1.25;;;;;;;21.43;nan;101364.91;4885314;29;20024;-77
2023/10/11 12:34:08;;;;;;;3.00;1.40;;;;;;;;;;4889033;29;20072;-76
2023/10/11 12:36:34;;;;;;;3.30;1.52;;;;;;;;;;4888697;29;20036;-76
2023/10/11 12:38:59;;;;;;;2.55;1.63;;;;;;;21.55;nan;101287.66;4891220;29;20039;-78
2023/10/11 12:41:25;;;;;;;5.88;1.42;;;;;;;21.59;nan;101403.13;4902151;29;20033;-78
2023/10/11 12:43:50;;;;;;;3.65;1.60;;;;;;;21.61;nan;101345.50;4885701;29;20057;-80
2023/10/11 12:46:17;;;;;;;2.90;1.40;;;;;;;21.49;nan;101312.88;4887222;29;20059;-77
2023/10/11 12:48:42;;;;;;;3.72;1.55;;;;;;;21.59;nan;101336.94;4884574;29;20047;-78
2023/10/11 12:51:08;;;;;;;3.47;1.27;;;;;;;21.64;nan;101342.28;4882239;29;20036;-77
2023/10/11 12:53:35;;;;;;;2.50;1.63;;;;;;;21.52;nan;101317.66;4880475;29;20088;-78
2023/10/11 12:56:00;;;;;;;3.05;1.50;;;;;;;;;;4882597;29;20172;-76
2023/10/11 12:58:27;;;;;;;3.58;1.35;;;;;;;;;;4885823;29;20509;-79
2023/10/11 13:01:05;;;;;;;9.27;1.50;;;;;;;21.60;nan;101442.28;4887980;29;20033;-79
2023/10/11 13:03:37;;;;;;;2.90;1.30;;;;;;;21.60;nan;101309.06;4886546;29;20111;-76
2023/10/11 13:06:16;;;;;;;4.80;1.50;;;;;;;21.60;nan;101373.41;4899777;29;20033;-79
2023/10/11 13:08:41;;;;;;;3.07;1.43;;;;;;;21.58;nan;101308.53;4885041;29;20039;-78
2023/10/11 13:11:11;;;;;;;3.67;1.50;;;;;;;21.60;nan;101324.34;4888935;29;20020;-78
2023/10/11 13:13:37;;;;;;;2.28;1.42;;;;;;;21.64;nan;101309.31;4886969;29;20527;-79
2023/10/11 13:16:03;;;;;;;1.23;1.00;;;;;;;21.67;nan;101327.53;4886465;29;20057;-78
2023/10/11 13:18:40;;;;;;;2.25;1.40;;;;;;;21.69;nan;101306.59;4888795;29;20040;-78
2023/10/11 13:21:11;;;;;;;3.15;1.33;;;;;;;21.73;nan;101326.41;4885840;29;20063;-79
2023/10/11 13:23:39;;;;;;;3.47;1.42;;;;;;;21.76;nan;101320.47;4888671;29;20032;-78
2023/10/11 13:26:07;;;;;;;7.63;1.40;;;;;;;;;;4891249;29;20111;-76